Terminal Aerodrome Forecast
Issued by NWS Atlanta, GA

Home | Current Version | Previous Version | Text Only | Print | Product List | Glossary On
Versions: 1 2 3 4 5 6 7 8 9 10 11 12 13 14 15 16 17 18 19 20 21 22 23 24 25 26 27 28 29 30 31 32 33 34 35 36 37
000
FTUS42 KFFC 221941 AAA
TAFATL
TAF AMD
KATL 221941Z 2220/2324 12007G15KT P6SM BKN040
     FM230400 12010KT P6SM BKN025
     FM230600 12010KT P6SM VCSH OVC008
     FM231000 13009KT 5SM -SHRA OVC010 PROB30 2314/2318 VRB10G20KT
      3SM TSRA BKN010CB
     FM231900 23009KT P6SM VCSH OVC015
     FM232200 27008KT P6SM BKN035=

USA.gov is the U.S. government's official web portal to all federal, state and local government web resources and services.